Terminal Aerodrome Forecast
Issued by NWS

Home | Current Version | Previous Version | Text Only | Print | Product List | Glossary Off
Versions: 1 2 3 4 5 6 7 8 9 10 11 12 13 14 15 16 17

253
FTUS43 KBIS 262328
TAFJMS
TAF
KJMS 262328Z 2700/2724 19009KT P6SM SCT150
     FM270300 19006KT P6SM VCTS BKN090CB
     FM270900 16005KT P6SM OVC100
     FM271800 19007KT P6SM SCT150=

USA.gov is the U.S. government's official web portal to all federal, state and local government web resources and services.